Time;durP1;ratioP1;P1;durP2;ratioP2;P2;SDS_P1;SDS_P2;PMS_P1;PMS_P2;Temp;Humidity;BMP_temperature;BMP_pressure;BME280_temperature;BME280_humidity;BME280_pressure;Samples;Min_cycle;Max_cycle;Signal;HPM_P1;HPM_P2
2022/01/28 00:00:32;;;;;;;8.48;4.60;;;2.00;99.90;;;;;;5099675;28;20048;-76
2022/01/28 00:05:28;;;;;;;7.15;3.45;;;2.00;99.90;;;;;;5101209;28;20015;-78
2022/01/28 00:07:55;;;;;;;7.40;3.78;;;2.00;99.90;;;;;;5099189;28;20048;-76
2022/01/28 00:10:23;;;;;;;8.25;2.95;;;1.90;99.90;;;;;;5100857;28;20246;-75
2022/01/28 00:39:57;;;;;;;8.60;5.38;;;1.80;99.90;;;;;;5100219;28;20466;-77
2022/01/28 00:42:24;;;;;;;9.23;4.77;;;1.80;99.90;;;;;;5100653;28;20032;-77
2022/01/28 00:44:49;;;;;;;11.27;4.40;;;1.70;99.90;;;;;;5116255;28;20039;-76
2022/01/28 00:47:18;;;;;;;7.93;4.00;;;1.70;99.90;;;;;;5103820;28;20024;-76
2022/01/28 00:49:44;;;;;;;8.77;3.87;;;1.70;99.90;;;;;;5102997;28;20067;-76
2022/01/28 00:52:09;;;;;;;10.35;4.53;;;1.70;99.90;;;;;;5102336;28;20086;-77
2022/01/28 00:54:35;;;;;;;10.30;4.65;;;1.60;99.90;;;;;;5102775;28;20032;-76
2022/01/28 00:57:01;;;;;;;10.73;4.80;;;1.60;99.90;;;;;;5102743;28;20092;-76
2022/01/28 00:59:26;;;;;;;13.20;4.10;;;1.60;99.90;;;;;;5103606;28;20028;-78
2022/01/28 01:01:52;;;;;;;12.38;4.75;;;1.50;99.90;;;;;;5102018;28;20016;-76
2022/01/28 01:04:18;;;;;;;13.70;6.80;;;1.50;99.90;;;;;;5103916;28;20081;-77
2022/01/28 01:06:43;;;;;;;10.20;3.67;;;1.50;99.90;;;;;;5101526;28;20013;-76
2022/01/28 01:09:09;;;;;;;11.98;3.63;;;1.50;99.90;;;;;;5103128;28;20024;-77
2022/01/28 01:11:35;;;;;;;15.07;7.45;;;1.50;99.90;;;;;;5102269;28;20032;-76
2022/01/28 01:14:00;;;;;;;9.38;3.53;;;1.50;99.90;;;;;;5100907;28;20070;-77
2022/01/28 01:16:55;;;;;;;11.75;4.05;;;1.50;99.90;;;;;;5100447;28;20027;-76
2022/01/28 01:19:19;;;;;;;11.35;4.72;;;1.50;99.90;;;;;;5102140;28;20039;-80
2022/01/28 01:21:45;;;;;;;15.05;5.43;;;1.50;99.90;;;;;;5100923;28;20024;-79
2022/01/28 01:24:20;;;;;;;11.07;5.25;;;1.50;99.90;;;;;;5100480;28;20494;-77
2022/01/28 01:26:46;;;;;;;9.23;4.20;;;1.50;99.90;;;;;;5102734;28;20530;-79
2022/01/28 01:29:14;;;;;;;10.75;4.80;;;1.50;99.90;;;;;;5102049;28;20028;-76
2022/01/28 01:31:42;;;;;;;9.07;3.67;;;1.60;99.90;;;;;;5100997;28;20024;-76
2022/01/28 01:36:35;;;;;;;8.70;4.28;;;1.60;99.90;;;;;;5097695;28;20024;-76
2022/01/28 01:39:04;;;;;;;8.02;3.47;;;1.60;99.90;;;;;;5099778;28;20047;-75
2022/01/28 01:41:35;;;;;;;13.63;4.18;;;1.30;99.90;;;;;;5100170;28;20031;-76
2022/01/28 01:44:09;;;;;;;8.73;3.70;;;1.60;99.90;;;;;;5101440;28;20027;-77
2022/01/28 01:52:04;;;;;;;12.05;4.60;;;1.50;99.90;;;;;;5102216;28;20035;-76
2022/01/28 01:54:41;;;;;;;15.15;3.83;;;1.50;99.90;;;;;;5102935;28;20028;-75
2022/01/28 01:57:09;;;;;;;10.10;4.47;;;1.50;99.90;;;;;;5099735;28;20024;-76
2022/01/28 01:59:37;;;;;;;11.20;4.85;;;1.50;99.90;;;;;;5101595;28;20052;-76
2022/01/28 02:02:04;;;;;;;4.80;3.08;;;1.60;99.90;;;;;;5101316;28;20060;-76
2022/01/28 02:04:31;;;;;;;11.23;5.18;;;1.60;99.90;;;;;;5099851;28;20024;-75
2022/01/28 02:06:59;;;;;;;9.55;3.63;;;1.50;99.90;;;;;;5101495;28;20016;-78
2022/01/28 02:09:25;;;;;;;8.38;4.25;;;1.60;99.90;;;;;;5100909;28;20039;-76
2022/01/28 02:11:51;;;;;;;7.93;4.22;;;1.50;99.90;;;;;;5096394;28;20020;-76
2022/01/28 02:14:17;;;;;;;9.75;3.10;;;-0.70;99.90;;;;;;5097289;28;20028;-79
2022/01/28 02:16:43;;;;;;;8.02;3.78;;;1.50;99.90;;;;;;5098605;28;20051;-77
2022/01/28 02:19:18;;;;;;;14.30;4.07;;;1.60;99.90;;;;;;5099811;28;20119;-75
2022/01/28 02:21:49;;;;;;;10.90;3.97;;;1.60;99.90;;;;;;5101223;28;20059;-76
2022/01/28 02:24:22;;;;;;;7.80;3.85;;;1.60;99.90;;;;;;5101244;28;20063;-78
2022/01/28 02:26:51;;;;;;;7.22;3.95;;;1.60;99.90;;;;;;5101309;28;20038;-76
2022/01/28 02:29:27;;;;;;;13.50;3.95;;;1.60;99.90;;;;;;5100858;28;20115;-78
2022/01/28 02:31:54;;;;;;;6.28;3.80;;;1.50;99.90;;;;;;5099735;28;20028;-76
2022/01/28 02:34:19;;;;;;;7.68;3.88;;;1.60;99.90;;;;;;5101772;28;20016;-77
2022/01/28 02:36:47;;;;;;;5.72;3.28;;;1.60;99.90;;;;;;5100737;28;20032;-78
2022/01/28 02:39:13;;;;;;;6.03;3.70;;;1.50;99.90;;;;;;5099511;28;20514;-79
2022/01/28 02:41:43;;;;;;;7.25;2.97;;;1.50;99.90;;;;;;5101849;28;20103;-77
2022/01/28 02:44:23;;;;;;;6.30;3.08;;;1.50;99.90;;;;;;5099508;28;20047;-78
2022/01/28 02:46:56;;;;;;;9.88;4.05;;;1.40;99.90;;;;;;5099468;28;20080;-75
2022/01/28 02:49:25;;;;;;;10.63;3.28;;;1.40;99.90;;;;;;5099423;28;20567;-77
2022/01/28 02:51:51;;;;;;;4.78;2.40;;;1.30;99.90;;;;;;5099538;28;20036;-76
2022/01/28 02:54:45;;;;;;;7.72;2.30;;;1.40;99.90;;;;;;5101298;28;20040;-76
2022/01/28 02:57:11;;;;;;;8.52;3.22;;;1.40;99.90;;;;;;5098718;28;20024;-76
2022/01/28 02:59:38;;;;;;;4.47;2.78;;;1.40;99.90;;;;;;5100209;28;20044;-76
2022/01/28 03:02:05;;;;;;;5.95;3.47;;;1.40;99.90;;;;;;5101100;28;20034;-78
2022/01/28 03:07:16;;;;;;;6.20;3.10;;;1.30;99.90;;;;;;5100189;28;20050;-76
2022/01/28 03:12:34;;;;;;;6.47;3.65;;;1.30;99.90;;;;;;5100545;28;20035;-77
2022/01/28 03:15:05;;;;;;;7.47;2.80;;;1.40;99.90;;;;;;5098332;28;20088;-77
2022/01/28 03:20:33;;;;;;;6.85;2.35;;;1.30;99.90;;;;;;5100034;28;20036;-76
2022/01/28 03:22:59;;;;;;;7.72;3.28;;;1.20;99.90;;;;;;5101066;28;20059;-76
2022/01/28 03:25:24;;;;;;;4.30;2.67;;;1.20;99.90;;;;;;5099627;28;20057;-76
2022/01/28 03:27:53;;;;;;;6.18;2.92;;;1.20;99.90;;;;;;5101328;28;20046;-76
2022/01/28 03:30:19;;;;;;;6.22;2.92;;;1.20;99.90;;;;;;5100432;28;20107;-76
2022/01/28 03:32:45;;;;;;;5.65;2.67;;;1.20;99.90;;;;;;5098687;28;20028;-77
2022/01/28 03:35:14;;;;;;;6.28;2.75;;;1.20;99.90;;;;;;5097817;28;20028;-75
2022/01/28 03:37:39;;;;;;;5.33;2.30;;;1.30;99.90;;;;;;5096173;28;20055;-77
2022/01/28 03:40:07;;;;;;;6.78;2.78;;;1.20;99.90;;;;;;5092139;28;20294;-77
2022/01/28 03:42:33;;;;;;;4.40;2.53;;;1.20;99.90;;;;;;5094267;28;20571;-76
2022/01/28 03:44:59;;;;;;;5.00;2.47;;;1.30;99.90;;;;;;5094649;28;20480;-75
2022/01/28 03:47:25;;;;;;;5.07;3.08;;;1.30;99.90;;;;;;5093285;28;20046;-75
2022/01/28 03:49:51;;;;;;;7.30;3.63;;;1.40;99.90;;;;;;5093251;28;20196;-76
2022/01/28 03:52:17;;;;;;;3.65;2.70;;;1.40;99.90;;;;;;5090017;28;20035;-80
2022/01/28 03:54:42;;;;;;;6.20;2.92;;;1.40;99.90;;;;;;5091244;28;20026;-75
2022/01/28 03:57:08;;;;;;;5.65;2.15;;;1.30;99.90;;;;;;5089295;28;20499;-75
2022/01/28 03:59:34;;;;;;;8.75;3.15;;;1.30;99.90;;;;;;5089173;28;20047;-78
2022/01/28 04:02:01;;;;;;;6.18;3.45;;;1.30;99.90;;;;;;5092116;28;20025;-76
2022/01/28 04:12:35;;;;;;;6.45;3.78;;;1.30;99.90;;;;;;5092263;28;20054;-76
2022/01/28 04:17:27;;;;;;;6.47;3.13;;;1.30;99.90;;;;;;5097518;28;20430;-77
2022/01/28 04:19:53;;;;;;;15.43;3.45;;;1.20;99.90;;;;;;5095896;28;20043;-76
2022/01/28 04:22:20;;;;;;;4.82;2.33;;;1.20;99.90;;;;;;5099158;28;20024;-80
2022/01/28 04:24:47;;;;;;;6.45;2.42;;;1.20;99.90;;;;;;5105923;28;20041;-80
2022/01/28 04:27:13;;;;;;;5.65;2.25;;;1.20;99.90;;;;;;5125158;28;20030;-79
2022/01/28 04:29:39;;;;;;;5.82;2.25;;;1.20;99.90;;;;;;5127098;28;20004;-80
2022/01/28 04:32:06;;;;;;;7.78;2.72;;;1.40;99.90;;;;;;5128403;22;20074;-78
2022/01/28 04:34:32;;;;;;;5.35;2.13;;;1.10;99.90;;;;;;5047792;28;20024;-79
2022/01/28 04:45:20;;;;;;;7.60;2.03;;;1.10;99.90;;;;;;5060418;28;20104;-88
2022/01/28 04:50:35;;;;;;;4.40;2.05;;;1.00;99.90;;;;;;5069960;28;20025;-78
2022/01/28 04:58:42;;;;;;;7.30;2.55;;;1.10;99.90;;;;;;5065607;28;20122;-81
2022/01/28 05:14:35;;;;;;;5.07;2.92;;;1.10;99.90;;;;;;5064501;28;20001;-81
2022/01/28 05:27:22;;;;;;;4.38;2.38;;;1.10;99.90;;;;;;5067926;28;20024;-81
2022/01/28 05:29:47;;;;;;;5.75;2.42;;;3.10;99.90;;;;;;5046623;28;20028;-78
2022/01/28 05:32:13;;;;;;;7.85;3.15;;;1.20;99.90;;;;;;5060223;28;20032;-79
2022/01/28 05:34:40;;;;;;;4.55;2.03;;;1.20;99.90;;;;;;5046213;28;20072;-79
2022/01/28 05:37:06;;;;;;;5.60;2.30;;;1.10;99.90;;;;;;5045058;28;21101;-78
2022/01/28 05:39:32;;;;;;;5.45;2.00;;;0.10;99.90;;;;;;5062299;28;20735;-80
2022/01/28 05:41:58;;;;;;;7.53;3.10;;;1.10;99.90;;;;;;5044053;28;20444;-81
2022/01/28 05:44:24;;;;;;;6.43;2.15;;;1.20;99.90;;;;;;5065081;28;20036;-80
2022/01/28 05:46:51;;;;;;;4.03;2.83;;;1.40;99.90;;;;;;5058660;28;20040;-80
2022/01/28 05:49:17;;;;;;;4.68;1.73;;;1.40;99.90;;;;;;5042863;28;20044;-80
2022/01/28 05:51:44;;;;;;;4.53;2.17;;;1.30;99.90;;;;;;5044081;28;20385;-79
2022/01/28 05:54:10;;;;;;;4.80;2.10;;;1.30;99.90;;;;;;5046006;28;20031;-79
2022/01/28 05:56:36;;;;;;;4.45;2.63;;;1.30;99.90;;;;;;5041668;28;20051;-77
2022/01/28 05:59:02;;;;;;;4.15;2.20;;;1.30;99.90;;;;;;5079783;28;20064;-81
2022/01/28 06:01:28;;;;;;;5.95;2.33;;;1.10;99.90;;;;;;5079607;28;20050;-78
2022/01/28 06:03:54;;;;;;;3.75;2.30;;;1.20;99.90;;;;;;5076771;28;20363;-78
2022/01/28 06:06:21;;;;;;;5.30;2.38;;;1.00;99.90;;;;;;5079473;28;20032;-78
2022/01/28 06:08:48;;;;;;;6.97;3.10;;;1.40;99.90;;;;;;5060468;28;20107;-78
2022/01/28 06:11:15;;;;;;;14.57;4.65;;;1.00;99.90;;;;;;5059305;28;20029;-78
2022/01/28 06:13:42;;;;;;;7.22;3.15;;;1.00;99.90;;;;;;5076786;28;20103;-79
2022/01/28 06:16:09;;;;;;;6.05;2.58;;;0.80;99.90;;;;;;5061020;28;20078;-79
2022/01/28 06:18:35;;;;;;;3.50;1.77;;;1.00;99.90;;;;;;5056729;28;20024;-80
2022/01/28 06:21:02;;;;;;;3.28;2.33;;;1.40;99.90;;;;;;5056737;28;20033;-78
2022/01/28 06:23:27;;;;;;;10.13;3.90;;;0.40;99.90;;;;;;5038334;28;20393;-78
2022/01/28 06:25:53;;;;;;;17.55;4.90;;;1.20;99.90;;;;;;5051649;28;20040;-79
2022/01/28 06:28:19;;;;;;;9.55;4.43;;;0.30;99.90;;;;;;5057386;28;20053;-78
2022/01/28 06:30:45;;;;;;;8.70;3.08;;;1.20;99.90;;;;;;5059318;28;20533;-78
2022/01/28 06:33:12;;;;;;;10.23;4.40;;;0.00;99.90;;;;;;5072633;28;20032;-78
2022/01/28 06:35:40;;;;;;;8.43;4.57;;;0.90;99.90;;;;;;5077594;28;20020;-77
2022/01/28 06:38:05;;;;;;;8.85;4.78;;;-0.30;99.90;;;;;;5078507;28;20028;-78
2022/01/28 06:40:31;;;;;;;6.95;4.03;;;-0.50;99.90;;;;;;5071047;28;20401;-77
2022/01/28 06:42:57;;;;;;;4.07;2.85;;;-0.60;99.90;;;;;;5070419;28;20469;-78
2022/01/28 06:45:23;;;;;;;8.85;3.22;;;-0.10;99.90;;;;;;5072215;28;20218;-78
2022/01/28 06:47:48;;;;;;;6.00;4.00;;;-0.80;99.90;;;;;;5069293;28;20028;-80
2022/01/28 06:50:14;;;;;;;8.35;3.33;;;-0.90;99.90;;;;;;5073243;28;20086;-78
2022/01/28 06:52:42;;;;;;;4.57;2.60;;;-1.00;99.90;;;;;;5073164;28;20496;-79
2022/01/28 06:55:09;;;;;;;7.18;4.15;;;-0.70;99.90;;;;;;5073826;28;20017;-77
2022/01/28 06:57:35;;;;;;;3.60;2.83;;;-1.20;99.90;;;;;;5077004;28;20040;-79
2022/01/28 07:00:02;;;;;;;7.30;3.65;;;-1.30;99.90;;;;;;5086374;28;20119;-79
2022/01/28 07:02:28;;;;;;;5.90;2.95;;;-1.30;99.90;;;;;;5085172;28;20034;-78
2022/01/28 07:04:53;;;;;;;6.93;2.30;;;-1.20;99.90;;;;;;5085819;28;20111;-80
2022/01/28 07:07:22;;;;;;;2.30;1.73;;;-1.30;99.90;;;;;;5081449;28;20410;-78
2022/01/28 07:09:48;;;;;;;5.50;2.70;;;-1.30;99.90;;;;;;5081265;28;20032;-80
2022/01/28 07:12:14;;;;;;;5.20;2.47;;;-0.90;99.90;;;;;;5080421;28;20036;-78
2022/01/28 07:14:39;;;;;;;4.38;2.28;;;-1.40;99.90;;;;;;5082355;28;20043;-79
2022/01/28 07:17:05;;;;;;;4.13;2.22;;;-1.60;99.90;;;;;;5080474;28;20029;-81
2022/01/28 07:19:31;;;;;;;3.90;2.65;;;-0.70;99.90;;;;;;5059795;28;20397;-85
2022/01/28 07:21:57;;;;;;;10.82;3.83;;;-0.80;99.90;;;;;;5051055;28;20028;-80
2022/01/28 07:24:23;;;;;;;9.18;3.92;;;-1.20;99.90;;;;;;5048989;28;20120;-79
2022/01/28 07:26:48;;;;;;;6.13;2.80;;;-0.60;99.90;;;;;;5048207;28;20108;-87
2022/01/28 07:29:14;;;;;;;13.57;5.38;;;-0.40;99.90;;;;;;5052392;28;20025;-79
2022/01/28 07:31:41;;;;;;;7.72;3.95;;;-1.10;99.90;;;;;;5053916;28;20053;-80
2022/01/28 07:34:11;;;;;;;9.77;3.30;;;-1.20;99.90;;;;;;5040011;28;20130;-80
2022/01/28 07:36:48;;;;;;;;;;;-1.40;99.90;;;;;;5066851;28;20048;-79
2022/01/28 07:39:34;;;;;;;2.85;1.92;;;-1.50;99.90;;;;;;5051569;28;19915;-80
2022/01/28 07:42:00;;;;;;;8.25;4.30;;;-1.50;99.90;;;;;;5065413;28;20029;-80
2022/01/28 07:44:25;;;;;;;7.28;3.17;;;-1.70;99.90;;;;;;5035515;28;20055;-80
2022/01/28 07:46:51;;;;;;;9.05;3.15;;;-1.00;99.90;;;;;;5041567;28;20078;-80
2022/01/28 07:49:17;;;;;;;12.35;4.13;;;-1.00;99.90;;;;;;5052167;28;20025;-79
2022/01/28 07:51:44;;;;;;;6.55;3.03;;;-1.60;99.90;;;;;;5047486;28;20059;-78
2022/01/28 07:54:30;;;;;;;8.45;4.13;;;-1.60;99.90;;;;;;5071170;28;20058;-79
2022/01/28 07:56:56;;;;;;;11.82;4.13;;;-1.60;99.90;;;;;;5054698;28;20032;-81
2022/01/28 07:59:22;;;;;;;10.32;5.93;;;-1.50;99.90;;;;;;5049198;28;20017;-80
2022/01/28 08:01:48;;;;;;;9.18;4.88;;;-1.50;99.90;;;;;;5061746;28;20213;-81
2022/01/28 08:04:14;;;;;;;15.52;4.97;;;-0.90;99.90;;;;;;5048092;28;20025;-79
2022/01/28 08:06:40;;;;;;;10.75;5.00;;;-0.90;99.90;;;;;;5064884;28;20013;-79
2022/01/28 08:09:09;;;;;;;13.10;5.07;;;-1.20;99.90;;;;;;5063163;28;20005;-80
2022/01/28 08:11:35;;;;;;;8.52;3.85;;;-0.90;99.90;;;;;;5051809;28;20021;-78
2022/01/28 08:14:02;;;;;;;4.88;3.38;;;0.20;99.90;;;;;;5059852;28;20116;-79
2022/01/28 08:16:28;;;;;;;6.35;2.90;;;-0.40;99.90;;;;;;5044075;28;20029;-79
2022/01/28 08:18:54;;;;;;;12.25;4.70;;;-0.10;99.90;;;;;;5043790;28;20436;-82
2022/01/28 08:21:20;;;;;;;15.00;5.07;;;-0.60;99.90;;;;;;5062157;28;20070;-79
2022/01/28 08:23:47;;;;;;;30.05;11.23;;;0.90;99.90;;;;;;5084343;28;20028;-79
2022/01/28 08:26:13;;;;;;;20.05;7.40;;;0.80;99.90;;;;;;5072636;28;20005;-80
2022/01/28 08:28:43;;;;;;;12.75;5.65;;;-0.30;99.90;;;;;;5078682;28;20032;-82
2022/01/28 08:31:17;;;;;;;8.13;3.40;;;1.10;99.90;;;;;;5081722;28;20057;-81
2022/01/28 08:33:48;;;;;;;14.75;5.28;;;-0.10;99.90;;;;;;5095647;28;20028;-82
2022/01/28 08:36:14;;;;;;;7.93;3.50;;;-0.10;99.90;;;;;;5092819;28;20005;-79
2022/01/28 08:38:53;;;;;;;10.95;4.28;;;0.80;99.90;;;;;;5089656;28;20027;-80
2022/01/28 08:41:29;;;;;;;10.43;3.90;;;0.00;99.90;;;;;;5092910;28;20488;-80
2022/01/28 08:43:59;;;;;;;4.25;2.58;;;0.10;99.90;;;;;;5089292;28;20112;-82
2022/01/28 08:46:31;;;;;;;11.00;3.83;;;0.20;99.90;;;;;;5098991;28;20008;-79
2022/01/28 08:48:57;;;;;;;14.43;3.58;;;0.30;99.90;;;;;;5097218;28;20001;-80
2022/01/28 08:51:26;;;;;;;5.60;3.28;;;2.20;99.90;;;;;;5089572;28;20485;-80
2022/01/28 08:53:54;;;;;;;10.85;4.55;;;0.60;99.90;;;;;;5090738;28;20029;-80
2022/01/28 08:56:20;;;;;;;14.85;6.65;;;0.90;99.90;;;;;;5090477;28;20556;-79
2022/01/28 08:58:47;;;;;;;16.50;5.75;;;1.20;99.90;;;;;;5092414;28;20048;-79
2022/01/28 09:01:12;;;;;;;13.43;6.15;;;1.40;99.90;;;;;;5081855;28;20029;-80
2022/01/28 09:03:38;;;;;;;16.48;7.82;;;1.40;99.90;;;;;;5090194;28;20035;-80
2022/01/28 09:06:04;;;;;;;13.52;7.03;;;1.50;99.90;;;;;;5067779;28;20162;-80
2022/01/28 09:08:33;;;;;;;14.98;7.65;;;1.60;99.90;;;;;;5085511;28;20089;-80
2022/01/28 09:11:47;;;;;;;16.50;6.97;;;1.60;99.90;;;;;;5083001;28;20052;-80
2022/01/28 09:13:44;;;;;;;15.40;7.35;;;1.70;99.90;;;;;;5077256;28;20029;-80
2022/01/28 09:16:10;;;;;;;17.42;6.93;;;1.60;99.90;;;;;;5073262;28;20027;-80
2022/01/28 09:18:38;;;;;;;14.48;7.18;;;1.70;99.90;;;;;;5084540;28;20035;-78
2022/01/28 09:21:04;;;;;;;16.75;6.63;;;1.70;99.90;;;;;;5088946;28;20298;-78
2022/01/28 09:23:30;;;;;;;16.70;7.03;;;1.70;99.90;;;;;;5087185;28;20394;-81
2022/01/28 09:25:56;;;;;;;16.55;8.15;;;1.80;99.90;;;;;;5076505;28;20074;-86
2022/01/28 09:28:21;;;;;;;24.02;8.68;;;1.90;99.90;;;;;;5071948;28;20035;-83
2022/01/28 09:30:47;;;;;;;16.30;7.85;;;2.00;99.90;;;;;;5079707;28;20044;-79
2022/01/28 09:33:13;;;;;;;15.38;7.40;;;2.20;99.90;;;;;;5053597;28;20475;-82
2022/01/28 09:35:41;;;;;;;15.55;7.47;;;2.20;99.90;;;;;;5057862;28;20033;-80
2022/01/28 09:38:07;;;;;;;16.27;6.80;;;2.40;99.90;;;;;;5051374;28;20032;-84
2022/01/28 09:40:33;;;;;;;13.52;6.88;;;2.60;99.90;;;;;;5056097;28;20028;-82
2022/01/28 09:43:01;;;;;;;13.40;6.50;;;2.80;99.90;;;;;;5053792;28;20383;-79
2022/01/28 09:45:27;;;;;;;14.95;6.30;;;2.90;99.90;;;;;;5082158;28;20047;-79
2022/01/28 09:47:57;;;;;;;17.80;7.45;;;3.00;99.90;;;;;;5068372;28;20017;-78
2022/01/28 09:50:25;;;;;;;17.10;8.02;;;3.00;99.90;;;;;;5052776;28;20025;-78
2022/01/28 09:52:53;;;;;;;13.10;6.13;;;3.00;99.90;;;;;;5065604;28;20024;-79
2022/01/28 09:55:19;;;;;;;14.82;7.30;;;3.00;99.90;;;;;;5055234;28;20082;-85
2022/01/28 09:57:49;;;;;;;15.60;7.38;;;3.10;99.90;;;;;;5053049;28;20032;-81
2022/01/28 10:00:16;;;;;;;19.98;8.00;;;3.30;99.90;;;;;;5082083;28;20042;-78
2022/01/28 10:02:59;;;;;;;22.40;7.95;;;3.60;99.90;;;;;;5065427;28;20084;-78
2022/01/28 10:05:27;;;;;;;17.25;6.63;;;3.80;99.90;;;;;;5063471;28;20029;-78
2022/01/28 10:08:08;;;;;;;15.48;6.97;;;4.00;99.90;;;;;;5078320;28;20639;-80
2022/01/28 10:10:44;;;;;;;12.43;5.97;;;4.10;99.90;;;;;;5058188;28;20810;-78
2022/01/28 10:13:16;;;;;;;11.65;5.43;;;4.10;99.90;;;;;;5081602;28;20072;-78
2022/01/28 10:16:15;;;;;;;13.98;6.18;;;4.30;99.90;;;;;;5067444;28;20031;-79
2022/01/28 10:18:49;;;;;;;;;;;4.20;99.90;;;;;;5056032;28;20058;-78
2022/01/28 10:21:37;;;;;;;16.30;6.22;;;4.20;99.90;;;;;;5079135;28;20328;-78
2022/01/28 10:24:18;;;;;;;14.75;5.95;;;4.40;99.90;;;;;;5066278;28;20004;-78
2022/01/28 10:26:46;;;;;;;12.15;5.38;;;4.60;99.90;;;;;;5065242;28;20021;-77
2022/01/28 10:29:14;;;;;;;11.88;5.72;;;4.70;99.90;;;;;;5080977;28;20496;-78
2022/01/28 10:31:43;;;;;;;11.00;5.50;;;4.90;99.90;;;;;;5069131;28;20382;-78
2022/01/28 10:34:10;;;;;;;11.40;6.35;;;5.00;99.90;;;;;;5078968;28;20024;-82
2022/01/28 10:36:36;;;;;;;10.05;5.28;;;5.00;99.90;;;;;;5079059;28;20021;-78
2022/01/28 10:39:02;;;;;;;7.05;4.32;;;4.80;99.90;;;;;;5076148;28;20032;-78
2022/01/28 10:41:29;;;;;;;11.15;5.22;;;4.60;99.90;;;;;;5074398;28;20024;-77
2022/01/28 10:43:57;;;;;;;14.30;5.50;;;4.50;99.90;;;;;;5078461;28;20544;-78
2022/01/28 10:46:34;;;;;;;16.23;5.97;;;4.50;99.90;;;;;;5073872;28;20028;-78
2022/01/28 10:49:03;;;;;;;16.48;6.88;;;4.40;99.90;;;;;;5081860;28;20021;-78
2022/01/28 10:51:47;;;;;;;16.80;6.53;;;4.50;99.90;;;;;;5078001;28;20028;-78
2022/01/28 10:54:16;;;;;;;10.60;5.30;;;4.60;99.90;;;;;;5080972;28;20028;-77
2022/01/28 10:56:51;;;;;;;14.80;6.18;;;4.60;99.90;;;;;;5078143;28;20078;-78
2022/01/28 10:59:20;;;;;;;15.60;5.78;;;4.70;99.90;;;;;;5082392;28;20048;-78
2022/01/28 11:01:47;;;;;;;12.27;6.80;;;4.70;99.90;;;;;;5078447;28;20035;-78
2022/01/28 11:04:17;;;;;;;14.60;6.50;;;4.40;99.90;;;;;;5085565;28;20056;-78
2022/01/28 11:06:46;;;;;;;14.55;7.38;;;4.20;99.90;;;;;;5085580;28;20056;-78
2022/01/28 11:09:30;;;;;;;10.32;5.35;;;4.20;99.90;;;;;;5086184;28;20473;-79
2022/01/28 11:11:56;;;;;;;12.50;5.82;;;4.10;99.90;;;;;;5063441;28;20085;-78
2022/01/28 11:14:22;;;;;;;10.77;5.47;;;4.10;99.90;;;;;;5060555;28;20024;-78
2022/01/28 11:16:49;;;;;;;11.75;6.00;;;4.20;99.90;;;;;;5061418;28;20040;-78
2022/01/28 11:19:20;;;;;;;10.25;5.03;;;4.10;99.90;;;;;;5072882;28;20016;-78
2022/01/28 11:22:09;;;;;;;9.43;4.85;;;4.40;99.90;;;;;;5081481;28;20115;-78
2022/01/28 11:25:06;;;;;;;13.82;5.90;;;4.50;99.90;;;;;;5084118;28;20024;-77
2022/01/28 11:27:38;;;;;;;12.40;5.95;;;4.60;99.90;;;;;;5077396;28;20039;-78
2022/01/28 11:30:25;;;;;;;12.68;5.43;;;4.60;99.90;;;;;;5076367;28;20119;-78
2022/01/28 11:32:54;;;;;;;12.98;6.88;;;4.90;99.90;;;;;;5072397;28;20040;-77
2022/01/28 11:35:21;;;;;;;8.82;5.38;;;5.00;99.90;;;;;;5079123;28;20024;-78
2022/01/28 11:37:47;;;;;;;12.27;5.53;;;5.10;99.90;;;;;;5084432;28;20358;-79
2022/01/28 11:40:16;;;;;;;13.52;6.10;;;5.20;99.90;;;;;;5080923;28;20380;-79
2022/01/28 11:42:42;;;;;;;9.52;5.30;;;5.20;99.90;;;;;;5081492;28;20024;-79
2022/01/28 11:45:09;;;;;;;12.65;5.78;;;5.30;99.90;;;;;;5087792;28;20037;-79
2022/01/28 11:47:41;;;;;;;12.85;5.10;;;5.00;99.90;;;;;;5085397;28;20017;-79
2022/01/28 11:50:11;;;;;;;14.23;6.03;;;4.80;99.90;;;;;;5085477;28;20032;-79
2022/01/28 11:52:48;;;;;;;11.70;5.78;;;4.80;99.90;;;;;;5075527;28;20024;-77
2022/01/28 11:55:26;;;;;;;10.40;4.82;;;5.00;99.90;;;;;;5074018;28;20031;-83
2022/01/28 11:57:57;;;;;;;14.95;6.03;;;4.80;99.90;;;;;;5081429;28;20068;-78
2022/01/28 12:00:30;;;;;;;11.95;5.20;;;4.80;99.90;;;;;;5083863;28;20033;-78
2022/01/28 12:02:56;;;;;;;10.57;5.32;;;5.00;99.90;;;;;;5087676;28;20044;-78
2022/01/28 12:05:31;;;;;;;13.05;6.68;;;5.20;99.90;;;;;;5086392;28;20039;-79
2022/01/28 12:08:03;;;;;;;13.38;5.75;;;5.20;99.90;;;;;;5087535;28;20373;-78
2022/01/28 12:10:32;;;;;;;10.20;5.50;;;5.00;99.90;;;;;;5087129;28;20032;-78
2022/01/28 12:13:03;;;;;;;11.80;5.60;;;4.90;99.90;;;;;;5086564;28;20007;-78
2022/01/28 12:15:31;;;;;;;13.57;4.72;;;4.60;99.90;;;;;;5086848;28;20035;-78
2022/01/28 12:18:10;;;;;;;9.25;4.70;;;4.60;99.90;;;;;;5087550;28;20051;-78
2022/01/28 12:20:45;;;;;;;19.02;8.35;;;4.40;99.90;;;;;;5085196;28;20041;-78
2022/01/28 12:23:10;;;;;;;9.95;5.03;;;4.40;99.90;;;;;;5084375;28;20408;-78
2022/01/28 12:25:36;;;;;;;12.82;6.13;;;4.40;99.90;;;;;;5087378;28;20016;-79
2022/01/28 12:28:18;;;;;;;13.50;5.70;;;4.20;99.90;;;;;;5085610;28;20024;-78
2022/01/28 12:30:49;;;;;;;12.82;6.75;;;4.10;99.90;;;;;;5085568;28;20041;-78
2022/01/28 12:33:20;;;;;;;11.55;5.57;;;4.10;99.90;;;;;;5087215;28;20036;-78
2022/01/28 12:35:50;;;;;;;9.15;5.10;;;4.10;99.90;;;;;;5084617;28;20037;-78
2022/01/28 12:38:17;;;;;;;12.75;5.10;;;4.10;99.90;;;;;;5088078;28;20208;-78
2022/01/28 12:40:48;;;;;;;16.63;5.50;;;4.10;99.90;;;;;;5085719;28;20035;-78
2022/01/28 12:43:18;;;;;;;15.32;6.05;;;4.00;99.90;;;;;;5080997;28;20032;-81
2022/01/28 12:46:10;;;;;;;10.93;5.28;;;4.10;99.90;;;;;;5129993;28;20021;-81
2022/01/28 12:48:44;;;;;;;11.27;5.18;;;3.90;99.90;;;;;;5076081;28;20037;-78
2022/01/28 12:51:31;;;;;;;13.25;5.93;;;4.00;99.90;;;;;;5088727;28;20024;-78
2022/01/28 12:53:57;;;;;;;15.23;6.25;;;4.10;99.90;;;;;;5088766;28;20033;-77
2022/01/28 12:56:40;;;;;;;16.67;7.35;;;4.20;99.90;;;;;;5090065;28;20027;-78
2022/01/28 12:59:10;;;;;;;15.73;6.40;;;2.10;99.90;;;;;;5088894;28;20040;-78
2022/01/28 13:01:36;;;;;;;15.30;5.88;;;4.30;99.90;;;;;;5089840;28;20047;-78
2022/01/28 13:04:14;;;;;;;11.65;5.20;;;4.50;99.90;;;;;;5092839;28;20021;-79
2022/01/28 13:09:23;;;;;;;13.85;5.50;;;4.80;99.90;;;;;;5091594;28;20060;-78
2022/01/28 13:11:57;;;;;;;12.57;6.50;;;5.40;99.90;;;;;;5090679;28;20016;-78
2022/01/28 13:14:30;;;;;;;13.95;6.95;;;6.20;99.90;;;;;;5090781;28;20435;-78
2022/01/28 13:16:56;;;;;;;13.27;6.43;;;6.90;99.90;;;;;;5091149;28;20028;-78
2022/01/28 13:19:22;;;;;;;11.82;6.00;;;7.40;99.90;;;;;;5092000;28;20128;-78
2022/01/28 13:21:50;;;;;;;10.18;4.97;;;7.90;99.90;;;;;;5090039;28;20021;-78
2022/01/28 13:24:29;;;;;;;10.38;4.88;;;8.20;99.90;;;;;;5092304;28;20489;-76
2022/01/28 13:27:08;;;;;;;11.10;5.20;;;8.10;99.90;;;;;;5091090;28;20012;-78
2022/01/28 13:29:48;;;;;;;9.52;4.57;;;8.50;99.90;;;;;;5090655;28;20044;-79
2022/01/28 13:32:20;;;;;;;10.75;4.32;;;9.30;99.90;;;;;;5088662;28;20500;-78
2022/01/28 13:34:59;;;;;;;9.40;5.15;;;8.80;99.90;;;;;;5089299;28;20056;-78
2022/01/28 13:37:39;;;;;;;11.60;4.68;;;8.40;99.90;;;;;;5089238;28;20088;-78
2022/01/28 13:40:28;;;;;;;13.00;6.07;;;8.60;99.90;;;;;;5082926;28;20047;-79
2022/01/28 13:43:00;;;;;;;8.40;4.22;;;8.50;99.90;;;;;;5087820;28;20415;-78
2022/01/28 13:45:31;;;;;;;12.20;5.15;;;8.90;99.90;;;;;;5087048;28;20029;-81
2022/01/28 13:47:58;;;;;;;10.48;4.35;;;9.00;99.90;;;;;;5088906;28;20020;-78
2022/01/28 13:50:46;;;;;;;8.15;3.95;;;9.20;99.90;;;;;;5090599;28;20038;-79
2022/01/28 13:55:54;;;;;;;8.32;4.40;;;8.10;99.90;;;;;;5089741;28;20142;-80
2022/01/28 13:58:21;;;;;;;8.05;3.90;;;7.70;99.90;;;;;;5072951;28;20481;-84
2022/01/28 14:00:50;;;;;;;8.95;4.55;;;7.70;99.90;;;;;;5088149;28;20093;-81
2022/01/28 14:03:18;;;;;;;9.68;5.38;;;7.50;99.90;;;;;;5090541;28;20084;-78
2022/01/28 14:06:05;;;;;;;9.37;4.10;;;7.50;99.90;;;;;;5085147;28;20048;-78
2022/01/28 14:08:48;;;;;;;11.50;5.80;;;7.60;99.90;;;;;;5087571;28;20267;-78
2022/01/28 14:11:27;;;;;;;9.00;4.05;;;7.40;99.90;;;;;;5087656;28;20029;-82
2022/01/28 14:14:05;;;;;;;11.32;4.82;;;7.40;99.90;;;;;;5086192;28;20057;-79
2022/01/28 14:16:31;;;;;;;10.85;4.47;;;8.70;99.90;;;;;;5087477;28;20062;-82
2022/01/28 14:18:56;;;;;;;9.43;4.97;;;7.10;99.90;;;;;;5085284;28;20017;-80
2022/01/28 14:21:26;;;;;;;8.05;4.45;;;7.00;99.90;;;;;;5086579;28;20036;-77
2022/01/28 14:23:52;;;;;;;9.10;4.85;;;6.80;99.90;;;;;;5086018;28;20067;-78
2022/01/28 14:26:19;;;;;;;9.00;5.32;;;6.90;99.90;;;;;;5087394;28;20029;-78
2022/01/28 14:31:25;;;;;;;17.83;6.88;;;6.70;99.90;;;;;;5089409;28;20049;-78
2022/01/28 14:33:51;;;;;;;15.63;6.65;;;6.80;99.90;;;;;;5088796;28;20558;-78
2022/01/28 14:36:17;;;;;;;25.33;9.15;;;6.40;99.90;;;;;;5087527;28;20040;-78
2022/01/28 14:38:47;;;;;;;23.25;10.15;;;6.00;99.90;;;;;;5090900;28;20028;-77
2022/01/28 14:41:16;;;;;;;11.57;6.03;;;6.30;99.90;;;;;;5087522;28;20031;-78
2022/01/28 14:43:42;;;;;;;10.10;5.13;;;6.20;99.90;;;;;;5087916;28;20051;-78
2022/01/28 14:46:07;;;;;;;9.25;4.88;;;6.10;99.90;;;;;;5089729;28;20028;-78